createdAt,value
2019-04-11T00:00:43.774Z,96.70
2019-04-11T00:03:13.633Z,96.80
2019-04-11T00:05:43.325Z,97.00
2019-04-11T00:08:12.267Z,97.10
2019-04-11T00:10:41.656Z,97.30
2019-04-11T00:13:18.887Z,97.20
2019-04-11T00:15:41.002Z,97.20
2019-04-11T00:18:10.329Z,97.40
2019-04-11T00:20:40.281Z,97.50
2019-04-11T00:23:10.148Z,97.60
2019-04-11T00:25:39.906Z,97.70
2019-04-11T00:28:09.882Z,97.90
2019-04-11T00:30:39.915Z,98.10
2019-04-11T00:33:09.841Z,98.20
2019-04-11T00:35:39.878Z,97.90
2019-04-11T00:38:09.796Z,98.00
2019-04-11T00:43:09.474Z,98.70
2019-04-11T00:45:38.378Z,98.60
2019-04-11T00:48:07.427Z,98.10
2019-04-11T00:50:37.126Z,98.20
2019-04-11T00:53:06.058Z,98.20
2019-04-11T00:55:35.615Z,98.30
2019-04-11T00:58:05.588Z,98.20
2019-04-11T01:00:36.640Z,98.50
2019-04-11T01:03:06.391Z,98.40
2019-04-11T01:05:35.377Z,98.30
2019-04-11T01:10:34.537Z,98.60
2019-04-11T01:13:03.270Z,98.70
2019-04-11T01:20:29.340Z,98.90
2019-04-11T01:25:28.475Z,98.90
2019-04-11T01:27:58.390Z,99.20
2019-04-11T01:30:34.534Z,99.30
2019-04-11T01:35:31.809Z,99.30
2019-04-11T01:38:00.547Z,99.30
2019-04-11T01:40:29.826Z,99.10
2019-04-11T01:42:59.628Z,98.90
2019-04-11T01:48:15.395Z,99.10
2019-04-11T01:50:45.255Z,99.30
2019-04-11T01:53:15.155Z,99.70
2019-04-11T01:58:12.438Z,99.60
2019-04-11T02:04:00.538Z,99.70
2019-04-11T02:06:29.969Z,99.80
2019-04-11T02:08:59.815Z,99.70
2019-04-11T02:11:29.644Z,99.90
2019-04-11T02:14:09.949Z,99.60
2019-04-11T02:16:29.349Z,99.60
2019-04-11T02:18:58.121Z,99.80
2019-04-11T02:21:27.473Z,99.90
2019-04-11T02:24:05.786Z,99.80
2019-04-11T02:26:35.662Z,99.70
2019-04-11T02:29:05.546Z,99.90
2019-04-11T02:31:34.944Z,99.90
2019-04-11T02:34:05.896Z,99.90
2019-04-11T02:36:36.437Z,99.90
2019-04-11T02:39:12.961Z,99.90
2019-04-11T02:41:40.129Z,99.90
2019-04-11T02:54:08.151Z,99.90
2019-04-11T02:56:37.864Z,99.80
2019-04-11T02:59:06.824Z,99.90
2019-04-11T03:01:36.445Z,99.90
2019-04-11T03:04:07.227Z,99.90
2019-04-11T03:06:36.422Z,99.90
2019-04-11T03:09:07.076Z,99.90
2019-04-11T03:16:46.177Z,99.90
2019-04-11T03:19:22.058Z,99.90
2019-04-11T03:21:41.403Z,99.90
2019-04-11T03:24:10.334Z,99.90
2019-04-11T03:26:37.976Z,99.90
2019-04-11T03:29:08.450Z,99.90
2019-04-11T03:39:27.825Z,99.90
2019-04-11T03:44:18.811Z,99.90
2019-04-11T03:46:54.231Z,99.90
2019-04-11T03:49:24.986Z,99.90
2019-04-11T03:51:45.422Z,99.90
2019-04-11T03:54:14.270Z,99.90
2019-04-11T03:56:45.758Z,99.90
2019-04-11T03:59:16.626Z,99.90
2019-04-11T04:04:19.333Z,99.90
2019-04-11T04:09:18.605Z,99.90
2019-04-11T04:11:49.174Z,99.90
2019-04-11T04:20:19.444Z,99.90
2019-04-11T04:22:54.690Z,99.90
2019-04-11T04:25:24.339Z,99.90
2019-04-11T04:27:54.638Z,99.90
2019-04-11T04:30:24.807Z,99.90
2019-04-11T04:32:54.747Z,99.90
2019-04-11T04:40:42.463Z,99.90
2019-04-11T04:42:58.360Z,99.90
2019-04-11T04:50:28.510Z,99.90
2019-04-11T04:52:58.278Z,99.90
2019-04-11T04:55:30.146Z,99.90
2019-04-11T04:57:59.744Z,99.90
2019-04-11T05:00:31.616Z,99.90
2019-04-11T05:10:30.615Z,99.90
2019-04-11T05:12:59.965Z,99.90
2019-04-11T05:15:28.982Z,99.90
2019-04-11T05:17:57.812Z,99.90
2019-04-11T05:20:26.590Z,99.90
2019-04-11T05:22:55.929Z,99.90
2019-04-11T05:25:24.882Z,99.90
2019-04-11T05:27:54.008Z,99.90
2019-04-11T05:30:23.168Z,99.90
2019-04-11T05:32:52.195Z,99.80
2019-04-11T05:35:21.090Z,99.40
2019-04-11T05:37:49.845Z,99.40
2019-04-11T05:40:18.609Z,99.40
2019-04-11T05:42:51.056Z,99.30
2019-04-11T05:45:21.125Z,99.10
2019-04-11T05:47:50.894Z,98.80
2019-04-11T05:53:03.433Z,99.00
2019-04-11T05:55:34.231Z,98.90
2019-04-11T05:58:05.861Z,98.40
2019-04-11T06:01:01.666Z,98.30
2019-04-11T06:03:30.413Z,98.00
2019-04-11T06:06:18.135Z,97.60
2019-04-11T06:08:48.169Z,97.10
2019-04-11T06:11:39.128Z,96.40
2019-04-11T06:16:57.638Z,94.60
2019-04-11T06:19:59.770Z,93.40
2019-04-11T06:22:29.718Z,91.90
2019-04-11T06:25:16.696Z,92.30
2019-04-11T06:27:51.826Z,91.30
2019-04-11T06:30:38.502Z,88.90
2019-04-11T06:33:22.751Z,90.30
2019-04-11T06:39:03.645Z,82.00
2019-04-11T06:41:50.598Z,81.40
2019-04-11T06:44:28.091Z,78.50
2019-04-11T06:47:10.938Z,78.40
2019-04-11T06:49:55.075Z,74.80
2019-04-11T06:52:30.193Z,71.80
2019-04-11T06:55:26.926Z,68.30
2019-04-11T06:58:02.674Z,57.70
2019-04-11T07:00:31.817Z,53.20
2019-04-11T07:03:01.585Z,52.30
2019-04-11T07:05:33.203Z,48.20
2019-04-11T07:08:02.314Z,48.50
2019-04-11T07:10:36.659Z,47.40
2019-04-11T07:13:12.189Z,43.00
2019-04-11T07:21:06.313Z,42.80
2019-04-11T07:23:53.519Z,42.40
2019-04-11T07:26:29.384Z,41.80
2019-04-11T07:29:20.124Z,40.00
2019-04-11T07:31:58.802Z,36.50
2019-04-11T07:34:52.870Z,35.10
2019-04-11T07:40:39.187Z,34.50
2019-04-11T07:43:19.377Z,31.10
2019-04-11T07:46:13.238Z,32.60
2019-04-11T07:48:42.718Z,32.80
2019-04-11T07:51:32.089Z,31.30
2019-04-11T07:54:02.763Z,33.90
2019-04-11T07:56:50.731Z,29.90
2019-04-11T08:02:51.346Z,29.70
2019-04-11T08:08:21.208Z,31.80
2019-04-11T08:11:08.043Z,33.90
2019-04-11T08:16:39.168Z,34.10
2019-04-11T08:22:21.067Z,31.90
2019-04-11T08:25:09.059Z,32.40
2019-04-11T08:27:52.136Z,33.70
2019-04-11T08:30:12.781Z,34.10
2019-04-11T08:32:48.169Z,35.20
2019-04-11T08:35:53.410Z,36.80
2019-04-11T08:38:27.223Z,37.40
2019-04-11T08:41:11.370Z,38.70
2019-04-11T08:43:41.496Z,40.60
2019-04-11T08:46:16.230Z,40.30
2019-04-11T08:48:48.956Z,42.60
2019-04-11T08:51:19.189Z,43.30
2019-04-11T08:54:05.324Z,43.80
2019-04-11T08:56:34.868Z,42.70
2019-04-11T08:59:44.012Z,43.00
2019-04-11T09:02:33.651Z,41.30
2019-04-11T09:05:33.682Z,42.70
2019-04-11T09:11:16.934Z,45.80
2019-04-11T09:16:50.105Z,41.60
2019-04-11T09:19:27.113Z,42.10
2019-04-11T09:22:15.114Z,42.90
2019-04-11T09:25:15.081Z,43.40
2019-04-11T09:27:46.805Z,43.50
2019-04-11T09:30:25.000Z,42.10
2019-04-11T09:33:15.042Z,41.70
2019-04-11T09:38:13.945Z,42.60
2019-04-11T09:43:31.878Z,42.90
2019-04-11T09:46:30.347Z,42.80
2019-04-11T09:49:23.697Z,43.10
2019-04-11T09:52:09.466Z,44.10
2019-04-11T09:54:45.125Z,43.10
2019-04-11T09:57:25.429Z,44.00
2019-04-11T10:00:14.385Z,44.60
2019-04-11T10:02:49.113Z,44.90
2019-04-11T10:05:22.441Z,44.50
2019-04-11T10:08:11.208Z,44.30
2019-04-11T10:13:44.926Z,44.00
2019-04-11T10:19:24.985Z,43.50
2019-04-11T10:21:58.975Z,43.80
2019-04-11T10:24:50.549Z,43.20
2019-04-11T10:27:44.810Z,43.70
2019-04-11T10:30:39.818Z,42.40
2019-04-11T10:33:17.023Z,42.30
2019-04-11T10:41:20.865Z,41.90
2019-04-11T10:46:37.587Z,42.90
2019-04-11T10:49:19.972Z,42.40
2019-04-11T10:52:09.832Z,42.30
2019-04-11T10:54:39.354Z,41.80
2019-04-11T10:57:26.126Z,42.10
2019-04-11T10:59:54.890Z,43.40
2019-04-11T11:03:13.778Z,42.30
2019-04-11T11:10:53.701Z,42.90
2019-04-11T11:13:40.782Z,43.60
2019-04-11T11:21:32.170Z,41.50
2019-04-11T11:24:33.769Z,42.20
2019-04-11T11:27:05.408Z,41.00
2019-04-11T11:32:27.920Z,40.80
2019-04-11T11:35:15.146Z,40.50
2019-04-11T11:37:50.067Z,40.90
2019-04-11T11:46:04.464Z,41.50
2019-04-11T11:51:29.563Z,40.90
2019-04-11T11:54:09.357Z,41.70
2019-04-11T11:56:40.178Z,40.40
2019-04-11T11:59:15.519Z,40.80
2019-04-11T12:01:54.342Z,40.00
2019-04-11T12:04:48.568Z,40.70
2019-04-11T12:15:51.146Z,42.30
2019-04-11T12:18:28.684Z,42.40
2019-04-11T12:21:01.050Z,40.50
2019-04-11T12:23:58.131Z,40.70
2019-04-11T12:26:18.517Z,41.00
2019-04-11T12:29:05.982Z,42.40
2019-04-11T12:31:37.084Z,40.80
2019-04-11T12:34:22.537Z,40.10
2019-04-11T12:36:53.317Z,40.70
2019-04-11T12:39:39.474Z,40.50
2019-04-11T12:42:12.953Z,41.10
2019-04-11T12:50:29.559Z,37.90
2019-04-11T12:53:03.403Z,38.00
2019-04-11T12:55:54.549Z,38.10
2019-04-11T12:58:28.430Z,38.40
2019-04-11T13:01:09.208Z,39.20
2019-04-11T13:04:06.927Z,38.50
2019-04-11T13:06:54.447Z,38.50
2019-04-11T13:09:43.852Z,37.80
2019-04-11T13:12:22.574Z,38.20
2019-04-11T13:14:58.828Z,38.20
2019-04-11T13:17:31.007Z,37.90
2019-04-11T13:20:17.726Z,37.80
2019-04-11T13:22:47.474Z,37.80
2019-04-11T13:25:38.563Z,37.10
2019-04-11T13:28:07.679Z,37.20
2019-04-11T13:31:07.616Z,38.40
2019-04-11T13:33:36.386Z,38.40
2019-04-11T13:36:16.206Z,37.60
2019-04-11T13:38:46.714Z,38.20
2019-04-11T13:41:34.203Z,38.50
2019-04-11T13:44:17.985Z,38.60
2019-04-11T13:46:58.569Z,39.00
2019-04-11T13:49:46.429Z,39.50
2019-04-11T13:52:34.267Z,39.10
2019-04-11T13:55:10.894Z,38.70
2019-04-11T13:57:59.089Z,38.60
2019-04-11T14:00:39.287Z,38.90
2019-04-11T14:03:25.886Z,38.90
2019-04-11T14:05:55.510Z,37.50
2019-04-11T14:08:28.631Z,38.70
2019-04-11T14:11:07.249Z,38.90
2019-04-11T14:13:40.931Z,38.40
2019-04-11T14:16:18.340Z,38.50
2019-04-11T14:19:11.646Z,38.00
2019-04-11T14:21:38.545Z,37.50
2019-04-11T14:24:45.259Z,37.70
2019-04-11T14:27:20.690Z,37.70
2019-04-11T14:30:11.447Z,37.40
2019-04-11T14:32:44.206Z,37.80
2019-04-11T14:35:31.090Z,36.60
2019-04-11T14:38:05.260Z,36.40
2019-04-11T14:41:02.289Z,37.40
2019-04-11T14:43:33.669Z,37.60
2019-04-11T14:46:24.692Z,37.30
2019-04-11T14:48:59.402Z,37.00
2019-04-11T14:51:58.406Z,37.30
2019-04-11T14:54:49.852Z,37.00
2019-04-11T14:57:56.045Z,37.10
2019-04-11T15:00:35.930Z,37.00
2019-04-11T15:03:23.932Z,37.30
2019-04-11T15:06:06.997Z,37.10
2019-04-11T15:08:57.861Z,36.40
2019-04-11T15:11:47.382Z,36.50
2019-04-11T15:14:35.805Z,36.90
2019-04-11T15:17:13.217Z,37.00
2019-04-11T15:19:44.785Z,36.70
2019-04-11T15:22:40.777Z,37.00
2019-04-11T15:25:17.671Z,37.30
2019-04-11T15:27:59.674Z,37.00
2019-04-11T15:33:15.762Z,37.40
2019-04-11T15:35:45.291Z,37.50
2019-04-11T15:44:13.940Z,37.30
2019-04-11T15:49:31.464Z,37.30
2019-04-11T15:52:07.570Z,36.90
2019-04-11T15:57:35.201Z,36.20
2019-04-11T16:00:25.474Z,36.60
2019-04-11T16:21:56.081Z,37.10
2019-04-11T16:27:24.069Z,36.60
2019-04-11T16:40:23.139Z,37.60
2019-04-11T16:58:15.129Z,39.30
2019-04-11T17:00:43.585Z,39.30
2019-04-11T17:03:12.414Z,39.40
2019-04-11T17:08:30.130Z,39.90
2019-04-11T17:11:14.553Z,40.30
2019-04-11T17:13:43.374Z,40.70
2019-04-11T17:16:13.806Z,41.00
2019-04-11T17:21:11.050Z,41.30
2019-04-11T17:26:08.238Z,41.50
2019-04-11T17:28:36.999Z,41.70
2019-04-11T17:31:05.837Z,41.70
2019-04-11T17:33:34.741Z,42.20
2019-04-11T17:36:03.509Z,42.00
2019-04-11T17:41:00.734Z,42.80
2019-04-11T17:43:29.491Z,43.40
2019-04-11T17:50:54.889Z,45.00
2019-04-11T17:53:24.983Z,45.50
2019-04-11T17:55:54.917Z,45.60
2019-04-11T17:58:26.783Z,46.60
2019-04-11T18:01:00.536Z,46.80
2019-04-11T18:03:29.490Z,47.00
2019-04-11T18:05:58.420Z,47.80
2019-04-11T18:08:27.169Z,48.20
2019-04-11T18:13:28.008Z,49.00
2019-04-11T18:15:56.110Z,49.70
2019-04-11T18:18:24.869Z,49.70
2019-04-11T18:20:53.679Z,52.50
2019-04-11T18:23:22.505Z,52.40
2019-04-11T18:25:51.806Z,52.50
2019-04-11T18:28:21.891Z,52.60
2019-04-11T18:30:53.822Z,53.50
2019-04-11T18:33:22.086Z,54.70
2019-04-11T18:35:50.842Z,54.80
2019-04-11T18:40:48.081Z,57.60
2019-04-11T18:43:16.932Z,57.80
2019-04-11T18:45:45.761Z,58.80
2019-04-11T18:50:43.395Z,59.90
2019-04-11T18:53:12.286Z,59.30
2019-04-11T19:13:03.227Z,59.30
2019-04-11T19:22:58.949Z,61.50
2019-04-11T19:27:57.273Z,61.60
2019-04-11T19:35:24.234Z,62.20
2019-04-11T19:52:47.093Z,65.10
2019-04-11T19:55:25.149Z,65.40
2019-04-11T19:57:53.969Z,65.30
2019-04-11T20:10:18.921Z,67.30
2019-04-11T20:17:45.018Z,69.20
2019-04-11T20:20:14.132Z,69.70
2019-04-11T20:22:42.881Z,69.90
2019-04-11T20:25:16.023Z,71.20
2019-04-11T20:30:11.093Z,72.70
2019-04-11T20:35:10.110Z,74.20
2019-04-11T20:37:42.251Z,74.00
2019-04-11T20:40:11.785Z,75.90
2019-04-11T20:42:40.827Z,77.00
2019-04-11T20:45:10.185Z,77.50
2019-04-11T20:50:08.956Z,78.60
2019-04-11T20:52:37.709Z,79.10
2019-04-11T20:55:08.986Z,77.70
2019-04-11T20:57:37.250Z,78.80
2019-04-11T21:00:06.519Z,79.70
2019-04-11T21:10:04.056Z,80.00
2019-04-11T21:22:25.113Z,82.00
2019-04-11T21:24:53.890Z,81.30
2019-04-11T21:27:22.701Z,82.20
2019-04-11T21:29:51.720Z,81.60
2019-04-11T21:32:20.474Z,81.80
2019-04-11T21:34:49.331Z,80.80
2019-04-11T21:44:43.154Z,80.40
2019-04-11T21:49:40.301Z,81.30
2019-04-11T21:52:12.059Z,81.80
2019-04-11T21:57:07.917Z,82.70
2019-04-11T22:02:07.063Z,83.40
2019-04-11T22:09:35.496Z,85.10
2019-04-11T22:12:07.650Z,85.60
2019-04-11T22:19:30.928Z,86.10
2019-04-11T22:21:59.677Z,85.80
2019-04-11T22:26:56.905Z,86.30
2019-04-11T22:29:25.680Z,86.20
2019-04-11T22:34:56.767Z,85.20
2019-04-11T22:44:52.817Z,86.10
2019-04-11T22:52:18.229Z,86.30
2019-04-11T22:54:47.053Z,86.90
2019-04-11T22:57:15.847Z,86.70
2019-04-11T22:59:45.290Z,87.40
2019-04-11T23:02:36.082Z,88.00
2019-04-11T23:05:05.276Z,88.20
2019-04-11T23:14:59.079Z,89.50
2019-04-11T23:17:27.828Z,89.80
2019-04-11T23:19:56.596Z,89.60
2019-04-11T23:22:25.412Z,90.10
2019-04-11T23:27:22.495Z,90.30
2019-04-11T23:29:51.241Z,90.30
2019-04-11T23:32:21.226Z,90.50
2019-04-11T23:34:52.791Z,90.70
2019-04-11T23:37:21.697Z,90.90
2019-04-11T23:39:51.066Z,91.00
2019-04-11T23:44:50.490Z,91.30
2019-04-11T23:52:17.996Z,91.20
2019-04-11T23:54:46.753Z,91.30
2019-04-11T23:57:15.527Z,91.40
